Time;durP1;ratioP1;P1;durP2;ratioP2;P2;SDS_P1;SDS_P2;PMS_P1;PMS_P2;Temp;Humidity;BMP_temperature;BMP_pressure;BME280_temperature;BME280_humidity;BME280_pressure;Samples;Min_cycle;Max_cycle;Signal;HPM_P1;HPM_P2
2023/06/02 00:04:29;;;;;;;6.38;4.32;;;16.80;91.70;;;15.85;74.20;99759.59;10093022;28;99710;-87
2023/06/02 00:09:38;;;;;;;8.95;5.03;;;16.80;91.70;;;15.90;74.04;99757.91;10096637;28;96462;-86
2023/06/02 00:14:42;;;;;;;5.32;3.92;;;17.00;91.80;;;15.98;73.92;99757.66;10094020;28;98685;-87
2023/06/02 00:19:47;;;;;;;6.25;4.03;;;17.00;91.80;;;16.02;73.80;99753.53;10077700;28;96611;-86
2023/06/02 00:24:50;;;;;;;8.18;4.00;;;17.10;91.80;;;16.00;73.76;99747.53;10094766;28;96668;-86
2023/06/02 00:29:53;;;;;;;6.53;4.50;;;17.10;91.80;;;15.94;73.93;99745.72;10094451;28;96498;-86
2023/06/02 00:34:57;;;;;;;10.02;4.88;;;17.10;91.90;;;15.91;74.37;99756.88;10090496;28;96617;-86
2023/06/02 00:40:00;;;;;;;7.15;4.70;;;17.00;92.10;;;15.89;74.36;99758.09;10081340;28;97882;-86
2023/06/02 00:45:04;;;;;;;5.50;4.40;;;17.00;92.30;;;15.86;74.45;99758.53;10072844;28;96631;-85
2023/06/02 00:50:08;;;;;;;7.65;4.82;;;16.90;92.50;;;15.81;74.76;99751.13;10094051;28;96536;-85
2023/06/02 00:55:11;;;;;;;7.80;4.90;;;16.80;92.90;;;15.75;75.12;99757.34;10070979;28;96554;-85
2023/06/02 01:00:16;;;;;;;7.07;4.65;;;16.80;93.00;;;15.66;75.36;99753.28;10071871;28;96742;-85
2023/06/02 01:05:20;;;;;;;6.90;4.38;;;16.70;93.60;;;15.62;75.37;99752.00;10107373;28;98416;-85
2023/06/02 01:10:23;;;;;;;6.05;4.32;;;16.60;93.60;;;15.61;75.37;99750.38;10101403;28;96928;-85
2023/06/02 01:15:26;;;;;;;6.55;4.63;;;16.60;93.70;;;15.55;75.82;99749.34;10089480;28;97826;-85
2023/06/02 01:20:30;;;;;;;7.90;5.05;;;16.60;93.90;;;15.47;76.02;99750.41;10092659;28;96949;-85
2023/06/02 01:25:36;;;;;;;5.78;4.57;;;16.50;94.20;;;15.38;76.55;99748.16;10113643;28;96659;-84
2023/06/02 01:30:40;;;;;;;6.20;4.43;;;16.40;94.50;;;15.24;77.06;99737.50;10082722;28;98165;-85
2023/06/02 01:35:50;;;;;;;7.28;4.65;;;16.30;94.90;;;15.15;77.74;99746.75;10074094;28;96606;-85
2023/06/02 01:40:58;;;;;;;7.27;5.03;;;16.10;95.30;;;15.06;78.42;99745.34;10101206;28;97176;-83
2023/06/02 01:46:02;;;;;;;17.30;6.25;;;16.00;95.70;;;14.97;78.89;99746.59;10098021;28;97523;-84
2023/06/02 01:51:05;;;;;;;7.47;4.85;;;16.00;96.20;;;14.88;79.43;99729.13;10085760;28;97645;-84
2023/06/02 01:56:08;;;;;;;5.97;5.10;;;15.90;96.50;;;14.87;79.53;99736.31;10084428;28;96629;-84
2023/06/02 02:01:11;;;;;;;7.53;5.22;;;15.90;96.80;;;14.82;79.39;99727.28;10114077;28;96745;-85
2023/06/02 02:06:15;;;;;;;7.68;5.22;;;15.90;97.10;;;14.83;79.89;99736.94;10109989;28;96841;-85
2023/06/02 02:11:18;;;;;;;9.77;6.97;;;15.90;97.40;;;14.79;80.26;99736.50;10084587;28;96808;-83
2023/06/02 02:16:21;;;;;;;7.80;5.25;;;15.90;97.70;;;14.77;80.69;99735.09;10084399;28;97751;-83
2023/06/02 02:21:28;;;;;;;8.35;5.20;;;15.80;97.90;;;14.75;81.05;99729.09;10100082;28;96441;-90
2023/06/02 02:26:32;;;;;;;6.65;5.40;;;15.80;98.30;;;14.71;81.11;99729.53;10082525;28;96700;-90
2023/06/02 02:31:35;;;;;;;8.65;5.60;;;15.80;98.60;;;14.68;81.21;99731.78;10099853;28;96486;-90
2023/06/02 02:36:39;;;;;;;6.75;5.20;;;15.80;98.90;;;14.62;81.51;99735.28;10083933;28;96507;-90
2023/06/02 02:41:42;;;;;;;6.85;5.70;;;15.70;99.20;;;14.60;82.04;99742.69;10059771;28;96625;-88
2023/06/02 02:46:46;;;;;;;11.07;6.28;;;15.70;99.60;;;14.59;82.01;99741.03;10101303;28;97480;-89
2023/06/02 02:51:49;;;;;;;6.85;4.95;;;15.60;99.90;;;14.57;81.72;99735.88;10080613;28;96618;-89
2023/06/02 02:56:52;;;;;;;7.05;5.20;;;15.70;99.90;;;14.54;81.86;99738.16;10075348;28;96615;-89
2023/06/02 03:01:55;;;;;;;7.07;5.30;;;15.70;99.90;;;14.48;82.55;99738.97;10101120;28;97324;-88
2023/06/02 03:07:01;;;;;;;6.82;5.47;;;15.50;99.90;;;14.40;82.73;99748.81;10089532;28;96595;-89
2023/06/02 03:12:04;;;;;;;10.98;5.55;;;15.40;99.90;;;14.29;83.81;99746.72;10082182;28;96935;-87
2023/06/02 03:17:08;;;;;;;7.15;5.57;;;15.30;99.90;;;14.19;84.35;99743.63;10071790;28;98153;-88
2023/06/02 03:22:12;;;;;;;9.38;5.20;;;15.20;99.90;;;14.14;85.18;99744.22;10113188;28;96634;-88
2023/06/02 03:27:15;;;;;;;8.23;6.18;;;15.10;99.90;;;14.14;85.62;99746.06;10078481;28;96613;-88
2023/06/02 03:32:18;;;;;;;6.53;5.03;;;15.10;99.90;;;14.16;85.72;99742.19;10097096;28;96556;-88
2023/06/02 03:37:21;;;;;;;6.72;5.00;;;15.20;99.90;;;14.25;86.14;99742.00;10068277;28;98246;-88
2023/06/02 03:42:24;;;;;;;7.43;5.70;;;15.30;99.90;;;14.33;86.45;99747.94;10073745;28;96560;-88
2023/06/02 03:47:27;;;;;;;6.65;5.57;;;15.30;99.90;;;14.44;86.74;99741.19;10077412;28;97381;-86
2023/06/02 03:52:31;;;;;;;8.30;6.15;;;15.40;99.90;;;14.55;86.73;99739.78;10094965;28;98832;-85
2023/06/02 03:57:34;;;;;;;10.63;5.57;;;15.50;99.90;;;14.64;86.21;99750.09;10095492;28;96513;-86
2023/06/02 04:02:37;;;;;;;9.68;6.18;;;15.60;99.90;;;14.77;86.38;99743.94;10109233;28;96613;-86
2023/06/02 04:07:40;;;;;;;13.52;6.68;;;15.70;99.90;;;14.92;86.35;99741.03;10080252;28;96615;-85
2023/06/02 04:12:43;;;;;;;9.13;7.05;;;15.90;99.90;;;15.13;86.74;99735.47;10079965;28;98756;-86
2023/06/02 04:17:46;;;;;;;11.13;6.10;;;16.10;99.90;;;15.35;86.87;99733.31;10078209;28;99214;-86
2023/06/02 04:22:50;;;;;;;8.95;5.53;;;16.30;99.90;;;15.59;86.28;99733.66;10110632;28;96551;-88
2023/06/02 04:27:53;;;;;;;6.82;4.55;;;16.60;99.90;;;15.77;85.02;99737.34;10088349;28;98729;-88
2023/06/02 04:32:56;;;;;;;7.68;4.65;;;16.80;99.90;;;15.88;84.09;99740.38;10090226;28;97536;-87
2023/06/02 04:37:59;;;;;;;7.10;5.55;;;16.90;99.90;;;15.95;83.50;99739.34;10094915;28;96656;-87
2023/06/02 04:43:02;;;;;;;10.05;5.60;;;16.90;99.90;;;16.06;83.35;99740.50;10092474;28;97352;-87
2023/06/02 04:48:06;;;;;;;9.57;5.68;;;17.10;99.90;;;16.24;83.65;99731.72;10089688;28;98428;-86
2023/06/02 04:53:09;;;;;;;7.05;5.28;;;17.30;99.90;;;16.44;83.59;99734.31;10095366;28;96434;-86
2023/06/02 04:58:12;;;;;;;11.48;7.10;;;17.50;99.90;;;16.62;82.75;99739.72;10078936;28;96651;-86
2023/06/02 05:03:15;;;;;;;9.95;7.00;;;17.60;99.90;;;16.80;81.46;99739.81;10099475;28;96545;-87
2023/06/02 05:08:19;;;;;;;8.60;5.97;;;17.80;99.90;;;17.02;80.54;99745.59;10105088;28;98668;-87
2023/06/02 05:13:23;;;;;;;8.98;5.30;;;18.00;99.90;;;17.22;79.49;99737.38;10104998;28;97768;-87
2023/06/02 05:18:26;;;;;;;7.82;5.45;;;18.20;99.90;;;17.43;77.67;99728.03;10082727;28;97282;-87
2023/06/02 05:23:28;;;;;;;10.50;6.45;;;18.50;99.90;;;17.66;76.64;99738.94;10116060;28;98144;-85
2023/06/02 05:28:31;;;;;;;11.63;5.88;;;18.70;99.90;;;17.79;74.65;99731.78;10077277;28;96456;-85
2023/06/02 05:33:35;;;;;;;13.80;5.75;;;18.80;99.90;;;17.99;74.51;99743.09;10089077;28;96486;-85
2023/06/02 05:38:44;;;;;;;16.20;6.00;;;19.00;99.90;;;18.13;73.25;99733.81;10082095;28;98165;-85
2023/06/02 05:43:48;;;;;;;21.30;7.95;;;19.20;99.90;;;18.27;73.44;99729.03;10107036;28;97256;-85
2023/06/02 05:48:51;;;;;;;12.13;5.72;;;19.30;99.90;;;18.46;72.84;99729.78;10089412;28;97809;-85
2023/06/02 05:53:55;;;;;;;10.75;5.57;;;19.50;99.60;;;18.61;72.33;99732.06;10092890;28;96563;-85
2023/06/02 05:58:58;;;;;;;21.67;6.30;;;19.60;99.30;;;18.78;71.64;99729.53;10066454;28;98524;-84
2023/06/02 06:04:01;;;;;;;17.42;6.35;;;19.90;99.10;;;18.98;71.06;99728.13;10094325;28;97973;-85
2023/06/02 06:09:07;;;;;;;14.40;5.13;;;20.00;98.80;;;19.18;70.44;99733.16;10097726;28;96546;-85
2023/06/02 06:14:10;;;;;;;13.60;5.35;;;20.30;98.40;;;19.32;69.45;99732.94;10084996;28;97539;-85
2023/06/02 06:19:13;;;;;;;13.25;5.45;;;20.40;97.90;;;19.42;69.14;99725.88;10076303;28;96818;-85
2023/06/02 06:24:16;;;;;;;15.13;5.40;;;20.50;97.70;;;19.60;68.67;99729.50;10110469;28;98696;-85
2023/06/02 06:29:19;;;;;;;13.00;5.68;;;20.60;97.40;;;19.75;68.93;99727.94;10108084;28;98126;-85
2023/06/02 06:34:22;;;;;;;11.30;5.55;;;20.80;97.30;;;19.86;69.88;99731.66;10093814;28;98818;-85
2023/06/02 06:39:25;;;;;;;9.85;5.28;;;20.90;97.70;;;19.97;70.21;99721.88;10099050;28;96581;-85
2023/06/02 06:44:28;;;;;;;9.85;5.60;;;21.00;97.60;;;20.03;70.25;99724.44;10079687;28;96550;-85
2023/06/02 06:49:31;;;;;;;16.10;6.28;;;21.10;97.40;;;20.09;69.81;99730.75;10077232;28;98316;-85
2023/06/02 06:54:34;;;;;;;8.48;5.88;;;21.10;97.40;;;20.19;70.14;99728.22;10097789;28;96799;-85
2023/06/02 06:59:42;;;;;;;8.80;4.90;;;21.20;97.40;;;20.32;70.06;99736.00;10122993;28;98636;-85
2023/06/02 07:04:45;;;;;;;9.52;5.57;;;21.40;97.40;;;20.60;70.13;99734.38;10108457;28;97973;-85
2023/06/02 07:09:49;;;;;;;20.05;6.68;;;21.70;97.40;;;20.91;69.77;99724.88;10127248;28;98644;-86
2023/06/02 07:14:52;;;;;;;11.32;5.50;;;21.90;97.10;;;21.27;69.18;99734.31;10077560;28;96734;-85
2023/06/02 07:19:56;;;;;;;11.50;5.10;;;22.30;96.90;;;21.69;68.61;99722.16;10111556;28;97697;-85
2023/06/02 07:25:00;;;;;;;9.82;5.22;;;22.70;96.80;;;22.13;67.10;99714.81;10095141;28;96579;-85
2023/06/02 07:30:04;;;;;;;11.98;4.70;;;23.20;96.30;;;22.79;64.99;99709.16;10098890;28;96720;-85
2023/06/02 07:35:08;;;;;;;14.43;6.10;;;23.70;95.90;;;23.69;62.13;99699.13;10077972;28;96595;-85
2023/06/02 07:40:11;;;;;;;8.40;5.38;;;24.30;95.30;;;24.18;61.33;99696.84;10071023;28;98864;-86
2023/06/02 07:45:14;;;;;;;18.63;5.90;;;24.80;94.60;;;24.38;58.17;99697.97;10095853;28;97433;-87
2023/06/02 07:50:18;;;;;;;10.93;5.25;;;25.20;93.20;;;24.54;58.45;99691.47;10112077;28;96602;-87
2023/06/02 07:55:22;;;;;;;10.70;4.78;;;25.40;92.60;;;24.72;57.94;99692.81;10091790;28;96639;-86
2023/06/02 08:00:25;;;;;;;6.07;4.25;;;25.60;91.90;;;25.04;53.58;99695.19;10088977;28;96604;-86
2023/06/02 08:05:28;;;;;;;13.80;4.90;;;25.90;89.80;;;25.25;53.40;99688.66;10081113;28;96859;-86
2023/06/02 08:10:32;;;;;;;5.85;3.92;;;26.10;89.00;;;25.49;50.83;99691.56;10094966;28;96590;-86
2023/06/02 08:15:35;;;;;;;5.32;3.78;;;26.40;86.00;;;25.59;49.19;99679.78;10107669;28;96827;-85
2023/06/02 08:20:38;;;;;;;9.02;3.80;;;26.60;82.90;;;25.74;49.07;99677.03;10092680;28;96615;-86
2023/06/02 08:25:41;;;;;;;6.38;4.00;;;26.70;81.00;;;25.85;48.11;99677.81;10089480;28;96740;-86
2023/06/02 08:30:46;;;;;;;7.78;3.88;;;26.90;79.40;;;25.72;47.80;99684.63;10094903;28;97085;-87
2023/06/02 08:35:50;;;;;;;7.38;3.70;;;26.80;78.00;;;25.49;48.58;99696.16;10097668;28;97436;-87
2023/06/02 08:40:55;;;;;;;6.90;3.72;;;26.60;77.70;;;25.22;48.82;99686.47;10077468;28;96647;-88
2023/06/02 08:46:00;;;;;;;5.00;3.38;;;26.30;77.60;;;25.01;48.59;99680.25;10077978;28;96656;-86
2023/06/02 08:51:08;;;;;;;6.75;3.00;;;26.10;77.00;;;24.88;47.86;99688.97;10064795;28;96524;-87
2023/06/02 08:56:14;;;;;;;6.82;3.97;;;26.00;76.10;;;25.01;48.10;99676.69;10089614;28;96692;-87
2023/06/02 09:01:17;;;;;;;4.28;3.15;;;26.10;76.80;;;25.35;46.37;99669.56;10118130;28;96496;-86
2023/06/02 09:06:23;;;;;;;5.32;3.38;;;26.40;74.50;;;25.70;45.44;99666.97;10104067;28;98146;-86
2023/06/02 09:11:28;;;;;;;4.22;3.47;;;26.70;72.20;;;25.96;43.76;99643.13;10116662;28;96493;-86
2023/06/02 09:16:38;;;;;;;7.97;3.35;;;27.00;70.60;;;26.17;42.08;99636.47;10083313;28;96568;-85
2023/06/02 09:21:41;;;;;;;6.55;3.15;;;27.20;69.00;;;26.50;41.65;99634.84;10102180;28;96747;-86
2023/06/02 09:26:49;;;;;;;8.10;3.28;;;27.50;67.50;;;26.81;41.23;99632.66;10080437;28;96788;-87
2023/06/02 09:31:56;;;;;;;8.47;3.17;;;27.90;67.00;;;26.76;39.01;99649.03;10116512;28;96571;-87
2023/06/02 09:37:12;;;;;;;5.57;3.20;;;27.90;64.00;;;26.31;39.66;99648.31;10102258;28;96612;-86
2023/06/02 09:42:17;;;;;;;7.22;3.28;;;27.40;63.00;;;25.82;40.41;99664.75;10074804;28;96605;-86
2023/06/02 09:47:25;;;;;;;4.90;3.58;;;26.80;63.60;;;25.33;43.16;99652.72;10077721;28;96474;-85
2023/06/02 09:52:28;;;;;;;7.85;3.92;;;26.30;65.90;;;24.93;43.05;99655.53;10097766;28;98488;-87
2023/06/02 09:57:32;;;;;;;6.05;3.60;;;26.00;66.30;;;24.66;44.07;99645.81;10111066;28;96645;-84
2023/06/02 10:02:36;;;;;;;6.75;4.60;;;25.70;67.00;;;24.61;45.33;99639.56;10088206;28;97816;-85
2023/06/02 10:08:30;;;;;;;6.20;3.67;;;25.60;68.00;;;24.89;44.50;99652.56;10095708;28;96773;-85
2023/06/02 10:13:54;;;;;;;7.32;4.10;;;25.80;68.00;;;25.31;46.22;99654.91;10119970;28;96661;-84
2023/06/02 10:19:07;;;;;;;7.13;3.00;;;26.20;69.70;;;25.59;41.00;99637.06;10093776;28;97184;-86
2023/06/02 10:24:51;;;;;;;6.80;3.20;;;26.50;64.00;;;25.60;39.60;99630.53;10104287;28;97761;-84
2023/06/02 10:29:55;;;;;;;3.95;3.10;;;26.60;61.90;;;25.54;39.91;99639.81;10100997;28;97491;-86
2023/06/02 10:34:59;;;;;;;7.60;3.22;;;26.60;61.70;;;25.69;40.17;99633.50;10070803;28;97674;-87
2023/06/02 10:40:03;;;;;;;4.47;3.35;;;26.70;62.20;;;26.11;41.70;99621.25;10098105;28;98597;-88
2023/06/02 10:45:20;;;;;;;5.47;3.17;;;27.10;63.30;;;26.63;40.91;99614.31;10095613;28;98001;-88
2023/06/02 10:50:24;;;;;;;6.18;3.47;;;27.60;63.20;;;27.12;39.73;99607.78;10099636;28;96524;-88
2023/06/02 10:55:34;;;;;;;8.70;3.85;;;28.10;61.70;;;27.43;37.73;99603.56;10086431;28;96819;-88
2023/06/02 11:00:45;;;;;;;7.90;3.50;;;28.40;60.80;;;27.60;36.60;99591.31;10083522;28;96710;-86
2023/06/02 11:05:50;;;;;;;7.90;3.55;;;28.70;59.00;;;27.54;37.69;99595.22;10082129;28;96919;-87
2023/06/02 11:11:02;;;;;;;7.20;3.25;;;28.60;59.20;;;27.62;38.45;99589.91;10065328;28;97592;-88
2023/06/02 11:16:06;;;;;;;3.78;2.72;;;28.70;60.00;;;27.84;35.73;99580.34;10054049;28;96800;-87
2023/06/02 11:21:37;;;;;;;5.93;3.10;;;28.90;58.10;;;28.08;35.20;99577.50;10098383;28;96628;-87
2023/06/02 11:26:48;;;;;;;2.88;2.33;;;29.20;57.10;;;28.17;33.36;99578.44;10104026;28;97522;-85
2023/06/02 11:31:51;;;;;;;4.55;2.78;;;29.30;55.20;;;28.00;34.15;99587.16;10087273;28;97983;-85
2023/06/02 11:36:54;;;;;;;8.98;2.97;;;29.20;55.00;;;27.61;34.81;99599.22;10086748;28;96662;-85
2023/06/02 11:41:58;;;;;;;6.63;3.28;;;28.80;55.00;;;27.29;36.38;99602.66;10093223;28;96733;-84
2023/06/02 11:47:01;;;;;;;7.47;4.28;;;28.50;56.80;;;27.32;38.27;99612.97;10065295;28;97883;-86
2023/06/02 11:52:06;;;;;;;14.50;6.90;;;28.40;58.00;;;27.35;38.20;99612.41;10096734;28;96768;-85
2023/06/02 11:57:09;;;;;;;9.13;4.03;;;28.50;58.20;;;26.93;38.80;99616.69;10094568;28;96962;-87
2023/06/02 12:02:23;;;;;;;6.68;3.90;;;28.10;58.90;;;26.38;41.74;99642.53;10086617;28;96574;-88
2023/06/02 12:07:28;;;;;;;10.88;4.07;;;27.60;62.00;;;25.84;44.63;99644.31;10098112;28;96523;-87
2023/06/02 12:12:32;;;;;;;5.45;3.92;;;27.00;64.00;;;25.34;46.45;99631.78;10062119;28;98154;-90
2023/06/02 12:17:44;;;;;;;6.35;3.75;;;26.50;66.30;;;24.89;48.59;99629.97;10110235;28;98222;-87
2023/06/02 12:22:55;;;;;;;4.43;3.92;;;26.00;68.20;;;24.89;48.66;99608.25;10094109;28;96695;-86
2023/06/02 12:28:09;;;;;;;7.18;3.78;;;26.10;68.30;;;25.26;46.48;99597.81;10077000;28;96716;-87
2023/06/02 12:33:15;;;;;;;5.07;3.65;;;26.50;66.40;;;25.76;44.93;99586.94;10110316;28;96747;-88
2023/06/02 12:38:18;;;;;;;7.07;3.83;;;27.30;64.90;;;26.29;43.82;99579.72;10092220;28;96706;-87
2023/06/02 12:43:21;;;;;;;5.78;3.40;;;28.00;63.40;;;27.11;42.51;99568.81;10071695;28;97630;-88
2023/06/02 12:48:23;;;;;;;6.07;2.72;;;28.90;62.40;;;27.91;40.21;99565.19;10088588;28;96508;-87
2023/06/02 12:53:26;;;;;;;8.35;3.03;;;29.60;60.00;;;28.46;37.98;99554.44;10094433;28;96793;-87
2023/06/02 12:58:30;;;;;;;3.20;2.60;;;30.20;58.40;;;28.91;36.97;99548.34;10092041;28;96706;-87
2023/06/02 13:03:33;;;;;;;5.43;2.75;;;30.60;57.20;;;29.15;36.34;99550.91;10063851;28;96685;-88
2023/06/02 13:08:37;;;;;;;4.88;2.90;;;31.00;56.00;;;29.53;36.14;99544.06;10113115;28;97523;-88
2023/06/02 13:13:40;;;;;;;4.25;2.60;;;31.30;55.60;;;29.74;34.59;99543.56;10048434;28;96946;-88
2023/06/02 13:18:47;;;;;;;3.80;2.10;;;31.30;54.90;;;29.82;32.89;99529.13;10091486;28;96626;-89
2023/06/02 13:23:54;;;;;;;4.15;2.25;;;31.30;53.60;;;29.81;32.44;99533.00;10112768;28;96717;-89
2023/06/02 13:28:57;;;;;;;4.97;2.00;;;31.10;52.50;;;29.97;28.65;99526.00;10098338;28;98372;-90
2023/06/02 13:34:02;;;;;;;4.35;1.88;;;31.10;49.20;;;29.89;28.01;99518.56;10075458;28;96869;-91
2023/06/02 13:39:05;;;;;;;2.90;2.00;;;30.90;47.90;;;29.82;26.11;99529.13;10075046;28;97029;-92
2023/06/02 13:44:11;;;;;;;3.78;1.80;;;30.70;46.20;;;29.67;27.02;99537.72;10047503;28;96752;-90
2023/06/02 13:49:19;;;;;;;6.13;1.77;;;30.50;46.40;;;29.66;26.96;99530.63;10063500;28;96734;-92
2023/06/02 13:54:22;;;;;;;3.17;1.77;;;30.50;46.80;;;29.73;27.80;99517.31;10069521;28;97030;-89
2023/06/02 13:59:25;;;;;;;4.05;2.03;;;30.60;47.50;;;29.72;27.36;99530.19;10105512;28;98336;-90
2023/06/02 14:04:28;;;;;;;4.15;2.10;;;30.60;47.00;;;29.44;26.69;99534.91;10096507;28;96634;-88
2023/06/02 14:09:34;;;;;;;4.55;2.47;;;30.30;45.60;;;29.34;27.11;99543.38;10102444;28;97285;-88
2023/06/02 14:14:37;;;;;;;2.67;1.80;;;30.20;45.80;;;29.35;25.55;99531.31;10089929;28;97374;-89
2023/06/02 14:19:40;;;;;;;6.22;2.28;;;30.20;44.50;;;29.28;26.26;99530.94;10076360;28;97657;-89
2023/06/02 14:24:43;;;;;;;2.90;1.60;;;30.20;44.50;;;29.20;25.82;99529.72;10059139;28;96785;-89
2023/06/02 14:29:46;;;;;;;5.07;2.30;;;30.10;44.50;;;29.38;26.24;99530.69;10082621;28;97301;-89
2023/06/02 14:34:49;;;;;;;4.45;2.17;;;30.30;44.80;;;29.46;25.33;99532.69;10114709;28;96842;-87
2023/06/02 14:39:55;;;;;;;4.97;2.20;;;30.40;44.00;;;29.51;26.92;99529.84;10081417;28;97269;-88
2023/06/02 14:44:58;;;;;;;3.03;1.70;;;30.50;45.20;;;29.68;25.97;99522.91;10058426;28;96710;-90
2023/06/02 14:50:03;;;;;;;4.85;2.17;;;30.70;44.60;;;29.69;26.59;99530.00;10107059;28;97428;-85
2023/06/02 14:55:06;;;;;;;3.95;2.10;;;30.60;44.80;;;29.75;27.03;99513.16;10089183;28;97768;-87
2023/06/02 15:00:10;;;;;;;2.85;1.90;;;30.70;45.40;;;29.79;26.79;99518.78;10098831;28;96859;-88
2023/06/02 15:05:13;;;;;;;3.90;1.75;;;30.90;45.00;;;29.94;27.47;99510.22;10076724;28;96680;-86
2023/06/02 15:10:16;;;;;;;3.20;1.83;;;31.20;46.10;;;30.18;27.86;99512.63;10104912;28;97337;-87
2023/06/02 15:15:19;;;;;;;3.13;2.10;;;31.60;46.90;;;30.16;27.29;99508.56;10083076;28;96596;-86
2023/06/02 15:20:24;;;;;;;4.03;2.40;;;31.60;45.30;;;30.06;26.51;99515.91;10097001;28;96658;-86
2023/06/02 15:25:27;;;;;;;2.92;2.13;;;31.50;44.70;;;30.03;27.60;99513.00;10110443;28;96724;-88
2023/06/02 15:30:30;;;;;;;3.08;2.10;;;31.50;45.40;;;29.92;26.96;99509.69;10095332;28;96600;-87
2023/06/02 15:35:33;;;;;;;4.88;2.30;;;31.50;44.90;;;29.84;27.07;99521.41;10083936;28;96530;-87
2023/06/02 15:40:36;;;;;;;3.75;2.00;;;31.40;44.60;;;29.96;28.58;99515.38;10086261;28;97025;-87
2023/06/02 15:45:39;;;;;;;6.30;2.63;;;31.50;46.10;;;30.02;28.64;99511.38;10073521;28;96628;-86
2023/06/02 15:50:42;;;;;;;4.15;2.13;;;31.60;46.20;;;30.00;30.03;99503.47;10100680;28;96562;-87
2023/06/02 15:55:45;;;;;;;4.97;2.38;;;31.60;47.30;;;30.09;29.79;99507.06;10073897;28;96714;-86
2023/06/02 16:00:48;;;;;;;5.45;1.67;;;31.60;47.50;;;29.96;30.02;99501.66;10073639;28;96627;-87
2023/06/02 16:05:51;;;;;;;2.47;1.80;;;31.40;47.70;;;29.77;30.67;99504.63;10059643;28;97444;-88
2023/06/02 16:10:54;;;;;;;4.75;2.28;;;31.10;48.10;;;29.51;30.57;99499.75;10044715;28;96791;-86
2023/06/02 16:15:58;;;;;;;5.80;2.47;;;30.70;48.40;;;29.26;31.36;99519.47;10095033;28;96559;-86
2023/06/02 16:21:03;;;;;;;4.30;2.35;;;30.30;48.80;;;28.77;30.86;99507.38;10082289;28;97375;-87
2023/06/02 16:26:06;;;;;;;3.90;2.15;;;29.70;48.80;;;28.22;32.26;99523.72;10081807;28;97257;-87
2023/06/02 16:31:10;;;;;;;4.60;2.40;;;29.00;49.60;;;28.03;33.28;99531.16;10082179;28;96436;-87
2023/06/02 16:36:13;;;;;;;3.90;1.92;;;28.80;50.40;;;27.65;31.95;99521.09;10095731;28;96798;-85
2023/06/02 16:41:16;;;;;;;3.90;2.22;;;28.40;49.80;;;27.30;33.15;99527.91;10087412;28;97878;-87
2023/06/02 16:46:20;;;;;;;5.63;2.20;;;28.10;50.30;;;27.21;33.72;99532.38;10066496;28;96602;-85
2023/06/02 16:51:24;;;;;;;3.90;2.30;;;27.90;50.90;;;27.10;34.54;99536.34;10057945;28;96629;-89
2023/06/02 16:56:27;;;;;;;6.70;2.67;;;27.90;52.20;;;27.04;34.71;99545.66;10087577;28;96534;-86
2023/06/02 17:01:31;;;;;;;6.10;2.42;;;27.90;51.70;;;26.95;34.46;99554.50;10087918;28;96399;-87
2023/06/02 17:06:35;;;;;;;4.20;2.72;;;27.90;51.80;;;26.86;34.52;99563.59;10117562;28;96570;-87
2023/06/02 17:11:38;;;;;;;6.22;3.00;;;27.90;51.30;;;26.64;34.82;99564.16;10079207;28;96480;-90
2023/06/02 17:16:41;;;;;;;7.75;3.03;;;27.70;51.90;;;26.48;35.50;99573.56;10064411;28;97428;-88
2023/06/02 17:21:45;;;;;;;6.47;2.70;;;27.50;52.10;;;26.14;35.73;99574.38;10078718;28;96616;-87
2023/06/02 17:26:48;;;;;;;4.13;3.00;;;27.20;52.60;;;25.73;37.08;99582.91;10070955;28;96769;-86
2023/06/02 17:31:52;;;;;;;5.57;2.80;;;26.70;53.30;;;25.34;37.79;99590.97;10116924;28;96505;-89
2023/06/02 17:36:55;;;;;;;5.10;3.10;;;26.30;54.00;;;24.98;38.00;99582.13;10099624;28;96614;-87
2023/06/02 17:41:58;;;;;;;4.50;2.83;;;25.80;54.60;;;24.66;39.34;99590.66;10100415;28;96669;-87
2023/06/02 17:47:01;;;;;;;6.20;3.03;;;25.50;55.40;;;24.36;39.38;99588.81;10102467;28;97727;-90
2023/06/02 17:52:06;;;;;;;8.98;3.20;;;25.20;55.80;;;24.11;39.70;99595.84;10085353;28;96536;-86
2023/06/02 17:57:10;;;;;;;4.88;2.90;;;24.90;56.10;;;23.90;40.14;99607.78;10078157;28;96852;-87
2023/06/02 18:02:13;;;;;;;5.88;3.00;;;24.70;56.40;;;23.71;40.16;99613.72;10069122;28;96491;-87
2023/06/02 18:07:16;;;;;;;4.88;2.70;;;24.50;56.50;;;23.54;40.31;99615.81;10117492;28;97614;-89
2023/06/02 18:12:20;;;;;;;10.77;3.22;;;24.40;56.60;;;23.40;40.81;99617.41;10099031;28;96599;-88
2023/06/02 18:17:24;;;;;;;5.40;2.63;;;24.20;56.80;;;23.28;40.90;99624.97;10080302;28;97406;-89
2023/06/02 18:22:28;;;;;;;8.13;2.80;;;24.10;57.10;;;23.17;41.36;99635.75;10065847;28;97838;-89
2023/06/02 18:27:31;;;;;;;8.00;3.03;;;24.00;57.40;;;23.04;42.02;99649.78;10094154;28;97817;-88
2023/06/02 18:32:34;;;;;;;6.88;3.13;;;23.90;57.90;;;22.92;42.21;99649.16;10077721;28;97547;-89
2023/06/02 18:37:37;;;;;;;6.22;3.28;;;23.70;58.20;;;22.84;42.69;99668.56;10067951;28;96687;-90
2023/06/02 18:42:41;;;;;;;5.07;3.38;;;23.60;58.60;;;22.73;43.15;99672.28;10075389;28;96588;-85
2023/06/02 18:47:47;;;;;;;7.68;3.05;;;23.50;59.00;;;22.60;43.50;99679.78;10107791;28;99063;-87
2023/06/02 18:52:50;;;;;;;4.30;2.72;;;23.40;59.40;;;22.49;43.83;99686.22;10106368;28;96780;-87
2023/06/02 18:57:53;;;;;;;6.57;3.80;;;23.30;59.90;;;22.36;44.57;99700.97;10090686;28;96875;-86
2023/06/02 19:02:57;;;;;;;8.13;3.13;;;23.20;60.40;;;22.24;45.31;99713.84;10071379;28;98174;-86
2023/06/02 19:08:00;;;;;;;4.90;2.97;;;23.10;60.90;;;22.17;45.40;99724.06;10107114;28;97298;-86
2023/06/02 19:13:05;;;;;;;7.35;3.42;;;23.00;61.20;;;22.06;45.84;99739.34;10087246;28;96857;-87
2023/06/02 19:18:11;;;;;;;7.30;3.42;;;22.90;61.40;;;21.81;46.61;99747.19;10091387;28;98079;-87
2023/06/02 19:23:16;;;;;;;6.35;3.38;;;22.70;62.30;;;21.57;47.49;99755.53;10114153;28;96905;-86
2023/06/02 19:28:22;;;;;;;6.28;3.45;;;22.50;63.20;;;21.41;47.96;99761.84;10088726;28;96907;-87
2023/06/02 19:33:29;;;;;;;6.97;3.00;;;22.30;63.70;;;21.27;48.43;99758.63;10036027;28;96612;-85
2023/06/02 19:38:32;;;;;;;6.00;3.72;;;22.20;64.10;;;21.14;48.51;99764.38;10056468;28;97173;-87
2023/06/02 19:43:35;;;;;;;5.00;3.30;;;22.00;64.20;;;21.05;47.72;99763.16;10074786;28;97166;-87
2023/06/02 19:48:38;;;;;;;5.40;3.35;;;21.90;64.00;;;21.02;47.51;99772.56;10056728;28;96745;-86
2023/06/02 19:53:41;;;;;;;8.38;3.53;;;21.90;63.60;;;21.02;47.67;99779.88;10030017;28;97541;-86
2023/06/02 19:58:44;;;;;;;7.40;3.97;;;21.90;63.30;;;20.94;47.12;99783.81;10063112;28;97358;-86
2023/06/02 20:03:48;;;;;;;7.68;3.85;;;21.90;63.10;;;20.87;46.89;99791.25;10062575;28;97311;-87
2023/06/02 20:08:51;;;;;;;5.18;3.63;;;21.80;63.00;;;20.80;47.39;99790.56;10073021;28;98419;-87
2023/06/02 20:13:54;;;;;;;6.45;3.63;;;21.70;63.20;;;20.77;47.56;99800.00;10070266;28;96943;-82
2023/06/02 20:18:57;;;;;;;6.32;3.70;;;21.70;63.50;;;20.68;48.39;99801.44;10043411;28;97381;-83
2023/06/02 20:24:00;;;;;;;5.72;3.92;;;21.60;63.90;;;20.57;48.95;99813.97;10065328;28;96699;-83
2023/06/02 20:29:03;;;;;;;7.18;4.10;;;21.50;64.60;;;20.51;49.39;99836.53;10075378;28;96646;-82
2023/06/02 20:34:06;;;;;;;7.57;4.25;;;21.40;65.00;;;20.39;49.78;99843.81;10081460;28;98295;-83
2023/06/02 20:39:10;;;;;;;5.50;3.83;;;21.30;65.40;;;20.20;51.00;99850.44;10084833;28;97115;-83
2023/06/02 20:44:13;;;;;;;8.95;4.43;;;21.20;66.70;;;20.02;51.42;99849.53;10098780;28;97695;-82
2023/06/02 20:49:16;;;;;;;7.25;4.30;;;21.00;67.00;;;19.87;52.51;99857.31;10075131;28;99050;-82
2023/06/02 20:54:19;;;;;;;10.20;4.07;;;20.90;67.80;;;19.66;53.30;99844.44;10089499;28;96624;-82
2023/06/02 20:59:23;;;;;;;6.65;4.07;;;20.60;68.50;;;19.50;54.32;99854.88;10083517;28;96551;-82
2023/06/02 21:04:26;;;;;;;7.63;3.70;;;20.40;69.30;;;19.40;54.91;99867.28;10082798;28;97512;-82
2023/06/02 21:09:30;;;;;;;7.18;3.55;;;20.30;69.90;;;19.29;55.42;99873.47;10089079;28;96632;-82